Terminal Aerodrome Forecast
Issued by NWS

Home | Current Version | Previous Version | Text Only | Print | Product List | Glossary On
Versions: 1 2 3 4 5 6 7 8 9 10 11 12 13
000
FTUS45 KABQ 222300
TAFTCC
TAF
KTCC 222337Z 2300/2324 27011KT P6SM VCSH BKN100
     FM230400 24010KT P6SM VCTS SCT060CB BKN100
     FM230600 24008KT P6SM SCT150
     FM231700 23015G23KT P6SM SKC=

USA.gov is the U.S. government's official web portal to all federal, state and local government web resources and services.